sensor_id;sensor_type;location;lat;lon;timestamp;temperature;humidity
46652;DHT22;32377;52.182;5.398;2024-02-26T00:01:47;6.50;99.90
46652;DHT22;32377;52.182;5.398;2024-02-26T00:04:13;6.50;99.90
46652;DHT22;32377;52.182;5.398;2024-02-26T00:06:39;6.50;99.90
46652;DHT22;32377;52.182;5.398;2024-02-26T00:09:10;6.50;99.90
46652;DHT22;32377;52.182;5.398;2024-02-26T00:11:36;6.50;99.90
46652;DHT22;32377;52.182;5.398;2024-02-26T00:14:02;6.50;99.90
46652;DHT22;32377;52.182;5.398;2024-02-26T00:16:27;6.50;99.90
46652;DHT22;32377;52.182;5.398;2024-02-26T00:18:53;6.40;99.90
46652;DHT22;32377;52.182;5.398;2024-02-26T00:21:19;6.40;99.90
46652;DHT22;32377;52.182;5.398;2024-02-26T00:23:44;6.30;99.90
46652;DHT22;32377;52.182;5.398;2024-02-26T00:26:10;6.40;99.90
46652;DHT22;32377;52.182;5.398;2024-02-26T00:28:36;6.40;99.90
46652;DHT22;32377;52.182;5.398;2024-02-26T00:31:02;6.30;99.90
46652;DHT22;32377;52.182;5.398;2024-02-26T00:33:28;6.30;99.90
46652;DHT22;32377;52.182;5.398;2024-02-26T00:35:53;6.30;99.90
46652;DHT22;32377;52.182;5.398;2024-02-26T00:38:19;6.30;99.90
46652;DHT22;32377;52.182;5.398;2024-02-26T00:40:45;6.30;99.90
46652;DHT22;32377;52.182;5.398;2024-02-26T00:43:10;6.20;99.90
46652;DHT22;32377;52.182;5.398;2024-02-26T00:45:36;6.20;99.90
46652;DHT22;32377;52.182;5.398;2024-02-26T00:48:01;6.20;99.90
46652;DHT22;32377;52.182;5.398;2024-02-26T00:50:31;6.20;99.90
46652;DHT22;32377;52.182;5.398;2024-02-26T00:52:56;6.20;99.90
46652;DHT22;32377;52.182;5.398;2024-02-26T00:55:22;6.20;99.90
46652;DHT22;32377;52.182;5.398;2024-02-26T00:57:48;6.10;99.90
46652;DHT22;32377;52.182;5.398;2024-02-26T01:00:14;6.10;99.90
46652;DHT22;32377;52.182;5.398;2024-02-26T01:02:39;6.10;99.90
46652;DHT22;32377;52.182;5.398;2024-02-26T01:05:07;6.10;99.90
46652;DHT22;32377;52.182;5.398;2024-02-26T01:07:34;6.10;99.90
46652;DHT22;32377;52.182;5.398;2024-02-26T01:10:04;6.10;99.90
46652;DHT22;32377;52.182;5.398;2024-02-26T01:12:31;6.00;99.90
46652;DHT22;32377;52.182;5.398;2024-02-26T01:14:57;6.00;99.90
46652;DHT22;32377;52.182;5.398;2024-02-26T01:17:23;6.00;99.90
46652;DHT22;32377;52.182;5.398;2024-02-26T01:19:48;6.10;99.90
46652;DHT22;32377;52.182;5.398;2024-02-26T01:22:14;6.00;99.90
46652;DHT22;32377;52.182;5.398;2024-02-26T01:24:39;5.90;99.90
46652;DHT22;32377;52.182;5.398;2024-02-26T01:27:05;5.90;99.90
46652;DHT22;32377;52.182;5.398;2024-02-26T01:29:33;6.00;99.90
46652;DHT22;32377;52.182;5.398;2024-02-26T01:31:58;6.00;99.90
46652;DHT22;32377;52.182;5.398;2024-02-26T01:34:24;5.90;99.90
46652;DHT22;32377;52.182;5.398;2024-02-26T01:36:49;6.00;99.90
46652;DHT22;32377;52.182;5.398;2024-02-26T01:39:15;6.00;99.90
46652;DHT22;32377;52.182;5.398;2024-02-26T01:41:40;6.00;99.90
46652;DHT22;32377;52.182;5.398;2024-02-26T01:44:06;6.00;99.90
46652;DHT22;32377;52.182;5.398;2024-02-26T01:46:33;6.00;99.90
46652;DHT22;32377;52.182;5.398;2024-02-26T01:48:59;6.00;99.90
46652;DHT22;32377;52.182;5.398;2024-02-26T01:51:25;6.00;99.90
46652;DHT22;32377;52.182;5.398;2024-02-26T01:53:51;6.00;99.90
46652;DHT22;32377;52.182;5.398;2024-02-26T01:56:18;6.00;99.90
46652;DHT22;32377;52.182;5.398;2024-02-26T01:58:45;6.00;99.90
46652;DHT22;32377;52.182;5.398;2024-02-26T02:01:12;6.00;99.90
46652;DHT22;32377;52.182;5.398;2024-02-26T02:03:38;6.00;99.90
46652;DHT22;32377;52.182;5.398;2024-02-26T02:06:04;5.90;99.90
46652;DHT22;32377;52.182;5.398;2024-02-26T02:08:30;5.90;99.90
46652;DHT22;32377;52.182;5.398;2024-02-26T02:10:56;5.90;99.90
46652;DHT22;32377;52.182;5.398;2024-02-26T02:13:22;5.90;99.90
46652;DHT22;32377;52.182;5.398;2024-02-26T02:15:47;5.90;99.90
46652;DHT22;32377;52.182;5.398;2024-02-26T02:18:13;6.00;99.90
46652;DHT22;32377;52.182;5.398;2024-02-26T02:20:39;6.00;99.90
46652;DHT22;32377;52.182;5.398;2024-02-26T02:23:04;6.00;99.90
46652;DHT22;32377;52.182;5.398;2024-02-26T02:25:30;6.00;99.90
46652;DHT22;32377;52.182;5.398;2024-02-26T02:27:56;6.00;99.90
46652;DHT22;32377;52.182;5.398;2024-02-26T02:30:24;6.00;99.90
46652;DHT22;32377;52.182;5.398;2024-02-26T02:32:51;6.00;99.90
46652;DHT22;32377;52.182;5.398;2024-02-26T02:35:16;6.00;99.90
46652;DHT22;32377;52.182;5.398;2024-02-26T02:37:42;6.00;99.90
46652;DHT22;32377;52.182;5.398;2024-02-26T02:40:08;6.10;99.90
46652;DHT22;32377;52.182;5.398;2024-02-26T02:42:33;6.00;99.90
46652;DHT22;32377;52.182;5.398;2024-02-26T02:44:59;6.00;99.90
46652;DHT22;32377;52.182;5.398;2024-02-26T02:47:24;6.00;99.90
46652;DHT22;32377;52.182;5.398;2024-02-26T02:49:50;6.00;99.90
46652;DHT22;32377;52.182;5.398;2024-02-26T02:52:16;6.10;99.90
46652;DHT22;32377;52.182;5.398;2024-02-26T02:54:41;6.10;99.90
46652;DHT22;32377;52.182;5.398;2024-02-26T02:57:08;6.10;99.90
46652;DHT22;32377;52.182;5.398;2024-02-26T02:59:35;6.10;99.90
46652;DHT22;32377;52.182;5.398;2024-02-26T03:02:00;6.10;99.90
46652;DHT22;32377;52.182;5.398;2024-02-26T03:04:26;6.10;99.90
46652;DHT22;32377;52.182;5.398;2024-02-26T03:06:52;6.10;99.90
46652;DHT22;32377;52.182;5.398;2024-02-26T03:09:17;6.10;99.90
46652;DHT22;32377;52.182;5.398;2024-02-26T03:11:43;6.10;99.90
46652;DHT22;32377;52.182;5.398;2024-02-26T03:14:08;6.10;99.90
46652;DHT22;32377;52.182;5.398;2024-02-26T03:16:35;6.10;99.90
46652;DHT22;32377;52.182;5.398;2024-02-26T03:19:01;6.10;99.90
46652;DHT22;32377;52.182;5.398;2024-02-26T03:21:27;6.10;99.90
46652;DHT22;32377;52.182;5.398;2024-02-26T03:23:53;6.10;99.40
46652;DHT22;32377;52.182;5.398;2024-02-26T03:26:19;6.10;99.80
46652;DHT22;32377;52.182;5.398;2024-02-26T03:28:44;6.10;64.20
46652;DHT22;32377;52.182;5.398;2024-02-26T03:31:10;6.10;31.00
46652;DHT22;32377;52.182;5.398;2024-02-26T03:33:36;6.10;32.80
46652;DHT22;32377;52.182;5.398;2024-02-26T03:36:01;6.10;53.70
46652;DHT22;32377;52.182;5.398;2024-02-26T03:38:28;6.10;64.70
46652;DHT22;32377;52.182;5.398;2024-02-26T03:40:54;6.10;93.20
46652;DHT22;32377;52.182;5.398;2024-02-26T03:43:19;6.10;99.90
46652;DHT22;32377;52.182;5.398;2024-02-26T03:45:45;6.10;99.90
46652;DHT22;32377;52.182;5.398;2024-02-26T03:48:11;6.10;98.80
46652;DHT22;32377;52.182;5.398;2024-02-26T03:50:36;6.10;99.90
46652;DHT22;32377;52.182;5.398;2024-02-26T03:53:02;6.10;99.90
46652;DHT22;32377;52.182;5.398;2024-02-26T03:55:27;6.10;89.40
46652;DHT22;32377;52.182;5.398;2024-02-26T03:57:53;6.10;62.60
46652;DHT22;32377;52.182;5.398;2024-02-26T04:00:19;6.10;65.30
46652;DHT22;32377;52.182;5.398;2024-02-26T04:02:46;6.10;43.50
46652;DHT22;32377;52.182;5.398;2024-02-26T04:05:12;6.10;16.50
46652;DHT22;32377;52.182;5.398;2024-02-26T04:07:39;6.10;3.70
46652;DHT22;32377;52.182;5.398;2024-02-26T04:10:11;6.10;5.40
46652;DHT22;32377;52.182;5.398;2024-02-26T04:12:41;6.10;1.50
46652;DHT22;32377;52.182;5.398;2024-02-26T04:15:10;6.10;13.40
46652;DHT22;32377;52.182;5.398;2024-02-26T04:17:37;6.10;15.50
46652;DHT22;32377;52.182;5.398;2024-02-26T04:20:03;6.10;13.30
46652;DHT22;32377;52.182;5.398;2024-02-26T04:22:30;6.10;16.40
46652;DHT22;32377;52.182;5.398;2024-02-26T04:24:57;6.10;20.50
46652;DHT22;32377;52.182;5.398;2024-02-26T04:27:22;6.10;6.00
46652;DHT22;32377;52.182;5.398;2024-02-26T04:29:48;6.10;1.00
46652;DHT22;32377;52.182;5.398;2024-02-26T04:32:14;6.10;9.70
46652;DHT22;32377;52.182;5.398;2024-02-26T04:34:39;6.10;25.50
46652;DHT22;32377;52.182;5.398;2024-02-26T04:37:05;6.10;15.20
46652;DHT22;32377;52.182;5.398;2024-02-26T04:39:30;6.10;7.40
46652;DHT22;32377;52.182;5.398;2024-02-26T04:41:56;6.10;11.00
46652;DHT22;32377;52.182;5.398;2024-02-26T04:44:21;6.10;13.90
46652;DHT22;32377;52.182;5.398;2024-02-26T04:46:47;6.10;24.20
46652;DHT22;32377;52.182;5.398;2024-02-26T04:49:12;6.10;10.50
46652;DHT22;32377;52.182;5.398;2024-02-26T04:51:38;6.10;11.70
46652;DHT22;32377;52.182;5.398;2024-02-26T04:54:04;6.10;4.40
46652;DHT22;32377;52.182;5.398;2024-02-26T04:59:20;6.10;8.40
46652;DHT22;32377;52.182;5.398;2024-02-26T05:01:47;6.10;19.60
46652;DHT22;32377;52.182;5.398;2024-02-26T05:04:13;6.10;25.50
46652;DHT22;32377;52.182;5.398;2024-02-26T05:06:38;6.20;39.30
46652;DHT22;32377;52.182;5.398;2024-02-26T10:59:23;6.90;99.90
46652;DHT22;32377;52.182;5.398;2024-02-26T11:01:49;6.80;1.00
46652;DHT22;32377;52.182;5.398;2024-02-26T11:04:16;6.70;1.00
46652;DHT22;32377;52.182;5.398;2024-02-26T11:06:44;6.70;1.00
46652;DHT22;32377;52.182;5.398;2024-02-26T11:09:12;6.70;5.50
46652;DHT22;32377;52.182;5.398;2024-02-26T11:11:38;6.90;92.40
46652;DHT22;32377;52.182;5.398;2024-02-26T11:14:06;6.70;24.70
46652;DHT22;32377;52.182;5.398;2024-02-26T11:16:35;6.80;57.70
46652;DHT22;32377;52.182;5.398;2024-02-26T11:19:02;6.80;26.90
46652;DHT22;32377;52.182;5.398;2024-02-26T11:21:28;6.80;64.30
46652;DHT22;32377;52.182;5.398;2024-02-26T11:24:11;6.90;35.40
46652;DHT22;32377;52.182;5.398;2024-02-26T11:26:44;6.90;48.60
46652;DHT22;32377;52.182;5.398;2024-02-26T11:29:15;6.90;12.30
46652;DHT22;32377;52.182;5.398;2024-02-26T11:31:41;6.90;19.00
46652;DHT22;32377;52.182;5.398;2024-02-26T11:34:09;7.00;11.90
46652;DHT22;32377;52.182;5.398;2024-02-26T11:36:36;7.00;1.00
46652;DHT22;32377;52.182;5.398;2024-02-26T11:39:04;7.10;1.00
46652;DHT22;32377;52.182;5.398;2024-02-26T11:41:29;7.10;1.00
46652;DHT22;32377;52.182;5.398;2024-02-26T11:44:00;7.00;1.00
46652;DHT22;32377;52.182;5.398;2024-02-26T11:46:30;7.00;99.90
46652;DHT22;32377;52.182;5.398;2024-02-26T11:51:27;7.00;99.90
46652;DHT22;32377;52.182;5.398;2024-02-26T11:53:56;7.00;1.00
46652;DHT22;32377;52.182;5.398;2024-02-26T11:56:23;6.90;99.90
46652;DHT22;32377;52.182;5.398;2024-02-26T11:58:54;6.90;99.90
46652;DHT22;32377;52.182;5.398;2024-02-26T12:01:48;6.90;99.90
46652;DHT22;32377;52.182;5.398;2024-02-26T12:04:19;6.90;1.00
46652;DHT22;32377;52.182;5.398;2024-02-26T12:06:47;6.90;1.00
46652;DHT22;32377;52.182;5.398;2024-02-26T12:09:16;6.80;99.90
46652;DHT22;32377;52.182;5.398;2024-02-26T12:11:55;6.80;99.90
46652;DHT22;32377;52.182;5.398;2024-02-26T12:14:25;6.90;99.90
46652;DHT22;32377;52.182;5.398;2024-02-26T12:16:52;7.00;99.90
46652;DHT22;32377;52.182;5.398;2024-02-26T12:19:18;7.00;99.90
46652;DHT22;32377;52.182;5.398;2024-02-26T12:21:44;7.10;99.90
46652;DHT22;32377;52.182;5.398;2024-02-26T12:24:11;7.20;99.90
46652;DHT22;32377;52.182;5.398;2024-02-26T12:26:38;7.20;99.90
46652;DHT22;32377;52.182;5.398;2024-02-26T12:29:03;7.20;99.90
46652;DHT22;32377;52.182;5.398;2024-02-26T12:31:29;7.20;99.90
46652;DHT22;32377;52.182;5.398;2024-02-26T12:33:55;7.20;99.90
46652;DHT22;32377;52.182;5.398;2024-02-26T12:36:21;7.30;99.90
46652;DHT22;32377;52.182;5.398;2024-02-26T12:38:49;7.40;99.90
46652;DHT22;32377;52.182;5.398;2024-02-26T12:41:16;7.30;57.80
46652;DHT22;32377;52.182;5.398;2024-02-26T12:43:41;7.40;35.70
46652;DHT22;32377;52.182;5.398;2024-02-26T12:46:07;7.40;1.00
46652;DHT22;32377;52.182;5.398;2024-02-26T12:48:33;7.40;1.00
46652;DHT22;32377;52.182;5.398;2024-02-26T12:50:59;7.30;1.00
46652;DHT22;32377;52.182;5.398;2024-02-26T12:53:26;7.30;1.00
46652;DHT22;32377;52.182;5.398;2024-02-26T12:55:54;7.40;1.00
46652;DHT22;32377;52.182;5.398;2024-02-26T12:58:21;7.40;1.00
46652;DHT22;32377;52.182;5.398;2024-02-26T13:00:51;7.30;1.00
46652;DHT22;32377;52.182;5.398;2024-02-26T13:03:17;7.40;1.00
46652;DHT22;32377;52.182;5.398;2024-02-26T13:05:43;7.40;1.00
46652;DHT22;32377;52.182;5.398;2024-02-26T13:08:09;7.40;1.00
46652;DHT22;32377;52.182;5.398;2024-02-26T13:10:34;7.30;1.00
46652;DHT22;32377;52.182;5.398;2024-02-26T13:13:02;7.30;1.00
46652;DHT22;32377;52.182;5.398;2024-02-26T13:15:28;7.40;1.00
46652;DHT22;32377;52.182;5.398;2024-02-26T13:17:53;7.40;1.00
46652;DHT22;32377;52.182;5.398;2024-02-26T13:20:29;7.30;1.00
46652;DHT22;32377;52.182;5.398;2024-02-26T13:23:05;7.30;1.00
46652;DHT22;32377;52.182;5.398;2024-02-26T13:25:31;7.20;1.00
46652;DHT22;32377;52.182;5.398;2024-02-26T13:28:15;7.30;1.00
46652;DHT22;32377;52.182;5.398;2024-02-26T13:30:55;7.30;1.00
46652;DHT22;32377;52.182;5.398;2024-02-26T13:33:25;7.30;1.00
46652;DHT22;32377;52.182;5.398;2024-02-26T13:35:52;7.40;1.00
46652;DHT22;32377;52.182;5.398;2024-02-26T13:38:18;7.50;1.00
46652;DHT22;32377;52.182;5.398;2024-02-26T13:40:44;7.50;1.00
46652;DHT22;32377;52.182;5.398;2024-02-26T13:43:09;7.50;1.00
46652;DHT22;32377;52.182;5.398;2024-02-26T13:45:36;7.50;1.00
46652;DHT22;32377;52.182;5.398;2024-02-26T13:48:04;7.50;99.90
46652;DHT22;32377;52.182;5.398;2024-02-26T13:50:30;7.50;99.90
46652;DHT22;32377;52.182;5.398;2024-02-26T13:52:56;7.50;99.90
46652;DHT22;32377;52.182;5.398;2024-02-26T13:55:23;7.50;99.90
46652;DHT22;32377;52.182;5.398;2024-02-26T13:57:52;7.50;99.90
46652;DHT22;32377;52.182;5.398;2024-02-26T14:00:19;7.50;99.90
46652;DHT22;32377;52.182;5.398;2024-02-26T14:02:45;7.50;99.90
46652;DHT22;32377;52.182;5.398;2024-02-26T14:05:11;7.60;99.90
46652;DHT22;32377;52.182;5.398;2024-02-26T14:07:36;7.60;99.90
46652;DHT22;32377;52.182;5.398;2024-02-26T14:10:02;7.60;99.90
46652;DHT22;32377;52.182;5.398;2024-02-26T14:12:28;7.60;99.90
46652;DHT22;32377;52.182;5.398;2024-02-26T14:14:54;7.60;99.90
46652;DHT22;32377;52.182;5.398;2024-02-26T14:17:21;7.60;99.90
46652;DHT22;32377;52.182;5.398;2024-02-26T14:19:47;7.70;99.90
46652;DHT22;32377;52.182;5.398;2024-02-26T14:22:13;7.80;99.90
46652;DHT22;32377;52.182;5.398;2024-02-26T14:24:40;7.70;99.90
46652;DHT22;32377;52.182;5.398;2024-02-26T14:27:08;7.70;99.90
46652;DHT22;32377;52.182;5.398;2024-02-26T14:29:34;7.80;99.90
46652;DHT22;32377;52.182;5.398;2024-02-26T14:32:00;7.80;99.90
46652;DHT22;32377;52.182;5.398;2024-02-26T14:34:27;7.90;99.90
46652;DHT22;32377;52.182;5.398;2024-02-26T14:36:52;7.80;99.90
46652;DHT22;32377;52.182;5.398;2024-02-26T14:39:18;7.80;99.90
46652;DHT22;32377;52.182;5.398;2024-02-26T14:41:44;7.90;99.90
46652;DHT22;32377;52.182;5.398;2024-02-26T14:44:09;7.90;99.90
46652;DHT22;32377;52.182;5.398;2024-02-26T14:46:36;7.90;99.90
46652;DHT22;32377;52.182;5.398;2024-02-26T14:49:02;7.90;99.90
46652;DHT22;32377;52.182;5.398;2024-02-26T14:51:27;7.80;99.90
46652;DHT22;32377;52.182;5.398;2024-02-26T14:53:53;7.80;99.90
46652;DHT22;32377;52.182;5.398;2024-02-26T14:56:19;7.80;99.90
46652;DHT22;32377;52.182;5.398;2024-02-26T14:58:44;7.80;99.90
46652;DHT22;32377;52.182;5.398;2024-02-26T15:01:11;7.90;99.90
46652;DHT22;32377;52.182;5.398;2024-02-26T15:03:37;7.80;99.90
46652;DHT22;32377;52.182;5.398;2024-02-26T15:06:03;7.90;99.90
46652;DHT22;32377;52.182;5.398;2024-02-26T15:08:28;7.90;99.90
46652;DHT22;32377;52.182;5.398;2024-02-26T15:10:54;7.90;99.90
46652;DHT22;32377;52.182;5.398;2024-02-26T15:13:20;7.90;97.60
46652;DHT22;32377;52.182;5.398;2024-02-26T15:15:46;7.90;99.90
46652;DHT22;32377;52.182;5.398;2024-02-26T15:18:11;7.90;99.90
46652;DHT22;32377;52.182;5.398;2024-02-26T15:20:41;7.80;97.90
46652;DHT22;32377;52.182;5.398;2024-02-26T15:23:08;7.80;99.90
46652;DHT22;32377;52.182;5.398;2024-02-26T15:25:34;7.70;95.20
46652;DHT22;32377;52.182;5.398;2024-02-26T15:28:00;7.70;99.90
46652;DHT22;32377;52.182;5.398;2024-02-26T15:30:26;7.80;99.90
46652;DHT22;32377;52.182;5.398;2024-02-26T15:32:57;7.80;99.90
46652;DHT22;32377;52.182;5.398;2024-02-26T15:35:23;7.80;99.90
46652;DHT22;32377;52.182;5.398;2024-02-26T15:37:51;7.70;99.90
46652;DHT22;32377;52.182;5.398;2024-02-26T15:40:18;7.70;99.90
46652;DHT22;32377;52.182;5.398;2024-02-26T15:42:45;7.70;99.90
46652;DHT22;32377;52.182;5.398;2024-02-26T15:45:10;7.70;99.90
46652;DHT22;32377;52.182;5.398;2024-02-26T15:47:36;7.70;99.90
46652;DHT22;32377;52.182;5.398;2024-02-26T15:50:02;7.70;99.90
46652;DHT22;32377;52.182;5.398;2024-02-26T15:52:28;7.50;99.90
46652;DHT22;32377;52.182;5.398;2024-02-26T15:54:55;7.50;99.90
46652;DHT22;32377;52.182;5.398;2024-02-26T15:57:20;7.50;99.90
46652;DHT22;32377;52.182;5.398;2024-02-26T15:59:46;7.50;99.90
46652;DHT22;32377;52.182;5.398;2024-02-26T16:02:18;7.40;99.90
46652;DHT22;32377;52.182;5.398;2024-02-26T16:04:43;7.40;99.90
46652;DHT22;32377;52.182;5.398;2024-02-26T16:07:26;7.40;99.90
46652;DHT22;32377;52.182;5.398;2024-02-26T16:09:59;7.30;99.90
46652;DHT22;32377;52.182;5.398;2024-02-26T16:12:37;7.30;99.90
46652;DHT22;32377;52.182;5.398;2024-02-26T16:15:04;7.30;99.90
46652;DHT22;32377;52.182;5.398;2024-02-26T16:17:33;7.20;99.90
46652;DHT22;32377;52.182;5.398;2024-02-26T16:20:03;7.20;99.90
46652;DHT22;32377;52.182;5.398;2024-02-26T16:22:29;7.20;99.90
46652;DHT22;32377;52.182;5.398;2024-02-26T16:24:57;7.20;99.90
46652;DHT22;32377;52.182;5.398;2024-02-26T16:27:23;7.20;99.90
46652;DHT22;32377;52.182;5.398;2024-02-26T16:29:49;7.10;99.90
46652;DHT22;32377;52.182;5.398;2024-02-26T16:32:15;7.10;99.90
46652;DHT22;32377;52.182;5.398;2024-02-26T16:34:40;7.00;99.90
46652;DHT22;32377;52.182;5.398;2024-02-26T16:37:10;7.00;99.90
46652;DHT22;32377;52.182;5.398;2024-02-26T16:39:40;6.90;99.90
46652;DHT22;32377;52.182;5.398;2024-02-26T16:42:06;6.90;99.90
46652;DHT22;32377;52.182;5.398;2024-02-26T16:44:34;6.90;99.90
46652;DHT22;32377;52.182;5.398;2024-02-26T16:47:00;6.90;99.90
46652;DHT22;32377;52.182;5.398;2024-02-26T16:49:26;6.90;99.90
46652;DHT22;32377;52.182;5.398;2024-02-26T16:51:51;6.80;99.90
46652;DHT22;32377;52.182;5.398;2024-02-26T16:54:17;6.70;99.90
46652;DHT22;32377;52.182;5.398;2024-02-26T16:59:21;6.70;99.90
46652;DHT22;32377;52.182;5.398;2024-02-26T17:01:47;6.70;99.90
46652;DHT22;32377;52.182;5.398;2024-02-26T17:04:13;6.60;99.90
46652;DHT22;32377;52.182;5.398;2024-02-26T17:06:39;6.60;99.90
46652;DHT22;32377;52.182;5.398;2024-02-26T17:09:04;6.50;99.90
46652;DHT22;32377;52.182;5.398;2024-02-26T17:11:33;6.50;99.90
46652;DHT22;32377;52.182;5.398;2024-02-26T17:13:59;6.50;99.90
46652;DHT22;32377;52.182;5.398;2024-02-26T17:16:25;6.40;99.90
46652;DHT22;32377;52.182;5.398;2024-02-26T17:18:50;6.40;99.90
46652;DHT22;32377;52.182;5.398;2024-02-26T17:21:20;6.40;1.00
46652;DHT22;32377;52.182;5.398;2024-02-26T17:23:45;6.30;1.00
46652;DHT22;32377;52.182;5.398;2024-02-26T17:26:21;6.30;1.00
46652;DHT22;32377;52.182;5.398;2024-02-26T17:28:47;6.30;1.00
46652;DHT22;32377;52.182;5.398;2024-02-26T17:31:14;6.30;1.00
46652;DHT22;32377;52.182;5.398;2024-02-26T17:33:40;6.30;1.00
46652;DHT22;32377;52.182;5.398;2024-02-26T17:36:06;6.30;1.00
46652;DHT22;32377;52.182;5.398;2024-02-26T17:38:34;6.30;1.00
46652;DHT22;32377;52.182;5.398;2024-02-26T17:41:00;6.20;1.00
46652;DHT22;32377;52.182;5.398;2024-02-26T17:43:26;6.20;1.00
46652;DHT22;32377;52.182;5.398;2024-02-26T17:45:52;6.10;1.00
46652;DHT22;32377;52.182;5.398;2024-02-26T17:48:17;6.10;1.00
46652;DHT22;32377;52.182;5.398;2024-02-26T17:50:43;6.00;1.00
46652;DHT22;32377;52.182;5.398;2024-02-26T17:53:09;6.00;1.00
46652;DHT22;32377;52.182;5.398;2024-02-26T17:55:39;6.00;1.00
46652;DHT22;32377;52.182;5.398;2024-02-26T17:58:05;6.00;1.00
46652;DHT22;32377;52.182;5.398;2024-02-26T18:00:30;6.00;1.00
46652;DHT22;32377;52.182;5.398;2024-02-26T18:02:58;6.00;99.90
46652;DHT22;32377;52.182;5.398;2024-02-26T18:05:23;5.90;99.90
46652;DHT22;32377;52.182;5.398;2024-02-26T18:07:49;5.90;1.00
46652;DHT22;32377;52.182;5.398;2024-02-26T18:10:15;5.90;1.00
46652;DHT22;32377;52.182;5.398;2024-02-26T18:12:40;5.80;1.00
46652;DHT22;32377;52.182;5.398;2024-02-26T18:15:06;5.80;1.00
46652;DHT22;32377;52.182;5.398;2024-02-26T18:17:35;5.80;1.00
46652;DHT22;32377;52.182;5.398;2024-02-26T18:20:02;5.80;1.00
46652;DHT22;32377;52.182;5.398;2024-02-26T18:22:29;5.80;1.00
46652;DHT22;32377;52.182;5.398;2024-02-26T18:24:55;5.80;1.00
46652;DHT22;32377;52.182;5.398;2024-02-26T18:27:20;5.80;1.00
46652;DHT22;32377;52.182;5.398;2024-02-26T18:29:46;5.70;1.00
46652;DHT22;32377;52.182;5.398;2024-02-26T18:32:11;5.70;1.00
46652;DHT22;32377;52.182;5.398;2024-02-26T18:34:37;5.80;1.00
46652;DHT22;32377;52.182;5.398;2024-02-26T18:37:03;5.70;1.00
46652;DHT22;32377;52.182;5.398;2024-02-26T18:39:29;5.70;1.00
46652;DHT22;32377;52.182;5.398;2024-02-26T18:41:55;5.60;1.00
46652;DHT22;32377;52.182;5.398;2024-02-26T18:44:23;5.60;1.00
46652;DHT22;32377;52.182;5.398;2024-02-26T18:46:49;5.60;1.00
46652;DHT22;32377;52.182;5.398;2024-02-26T18:49:15;5.60;1.00
46652;DHT22;32377;52.182;5.398;2024-02-26T18:51:41;5.60;1.00
46652;DHT22;32377;52.182;5.398;2024-02-26T18:54:07;5.50;1.00
46652;DHT22;32377;52.182;5.398;2024-02-26T18:56:33;5.50;1.00
46652;DHT22;32377;52.182;5.398;2024-02-26T18:59:00;5.50;1.00
46652;DHT22;32377;52.182;5.398;2024-02-26T19:01:26;5.50;1.00
46652;DHT22;32377;52.182;5.398;2024-02-26T19:03:51;5.50;1.00
46652;DHT22;32377;52.182;5.398;2024-02-26T19:06:17;5.60;1.00
46652;DHT22;32377;52.182;5.398;2024-02-26T19:08:42;5.60;1.00
46652;DHT22;32377;52.182;5.398;2024-02-26T19:11:09;5.60;1.00
46652;DHT22;32377;52.182;5.398;2024-02-26T19:13:36;5.60;1.00
46652;DHT22;32377;52.182;5.398;2024-02-26T19:16:02;5.60;1.00
46652;DHT22;32377;52.182;5.398;2024-02-26T19:18:28;5.70;1.00
46652;DHT22;32377;52.182;5.398;2024-02-26T19:20:54;5.60;1.00
46652;DHT22;32377;52.182;5.398;2024-02-26T19:23:20;5.70;1.00
46652;DHT22;32377;52.182;5.398;2024-02-26T19:25:46;5.70;1.00
46652;DHT22;32377;52.182;5.398;2024-02-26T19:28:11;5.70;1.00
46652;DHT22;32377;52.182;5.398;2024-02-26T19:30:38;5.70;1.00
46652;DHT22;32377;52.182;5.398;2024-02-26T19:33:04;5.70;1.00
46652;DHT22;32377;52.182;5.398;2024-02-26T19:35:30;5.60;1.00
46652;DHT22;32377;52.182;5.398;2024-02-26T19:37:55;5.60;1.00
46652;DHT22;32377;52.182;5.398;2024-02-26T19:40:21;5.60;1.00
46652;DHT22;32377;52.182;5.398;2024-02-26T19:42:49;5.60;1.00
46652;DHT22;32377;52.182;5.398;2024-02-26T19:45:14;5.60;1.00
46652;DHT22;32377;52.182;5.398;2024-02-26T19:47:40;5.60;1.00
46652;DHT22;32377;52.182;5.398;2024-02-26T19:50:07;5.60;1.00
46652;DHT22;32377;52.182;5.398;2024-02-26T19:52:34;5.50;1.00
46652;DHT22;32377;52.182;5.398;2024-02-26T19:55:00;5.50;1.00
46652;DHT22;32377;52.182;5.398;2024-02-26T19:57:26;5.50;1.00
46652;DHT22;32377;52.182;5.398;2024-02-26T19:59:51;5.40;1.00
46652;DHT22;32377;52.182;5.398;2024-02-26T20:02:17;5.40;3.10
46652;DHT22;32377;52.182;5.398;2024-02-26T20:04:44;5.30;16.20
46652;DHT22;32377;52.182;5.398;2024-02-26T20:07:10;5.30;36.40
46652;DHT22;32377;52.182;5.398;2024-02-26T20:09:37;5.20;58.30
46652;DHT22;32377;52.182;5.398;2024-02-26T20:12:03;5.30;92.20
46652;DHT22;32377;52.182;5.398;2024-02-26T20:14:30;5.30;94.50
46652;DHT22;32377;52.182;5.398;2024-02-26T20:16:56;5.30;96.20
46652;DHT22;32377;52.182;5.398;2024-02-26T20:19:24;5.30;99.50
46652;DHT22;32377;52.182;5.398;2024-02-26T20:21:50;5.20;99.90
46652;DHT22;32377;52.182;5.398;2024-02-26T20:24:18;5.20;99.90
46652;DHT22;32377;52.182;5.398;2024-02-26T20:26:44;5.20;99.90
46652;DHT22;32377;52.182;5.398;2024-02-26T20:29:17;5.30;99.90
46652;DHT22;32377;52.182;5.398;2024-02-26T20:31:42;5.20;99.90
46652;DHT22;32377;52.182;5.398;2024-02-26T20:34:08;5.20;98.10
46652;DHT22;32377;52.182;5.398;2024-02-26T20:36:35;5.20;93.70
46652;DHT22;32377;52.182;5.398;2024-02-26T20:39:04;5.10;99.90
46652;DHT22;32377;52.182;5.398;2024-02-26T20:41:30;5.10;99.90
46652;DHT22;32377;52.182;5.398;2024-02-26T20:43:56;5.10;99.90
46652;DHT22;32377;52.182;5.398;2024-02-26T20:46:23;5.10;99.90
46652;DHT22;32377;52.182;5.398;2024-02-26T20:48:49;5.20;99.90
46652;DHT22;32377;52.182;5.398;2024-02-26T20:51:15;5.20;99.90
46652;DHT22;32377;52.182;5.398;2024-02-26T20:53:41;5.20;99.90
46652;DHT22;32377;52.182;5.398;2024-02-26T20:56:06;5.30;99.90
46652;DHT22;32377;52.182;5.398;2024-02-26T20:58:32;5.30;99.90
46652;DHT22;32377;52.182;5.398;2024-02-26T21:00:58;5.30;99.90
46652;DHT22;32377;52.182;5.398;2024-02-26T21:03:24;5.30;99.90
46652;DHT22;32377;52.182;5.398;2024-02-26T21:05:50;5.40;95.40
46652;DHT22;32377;52.182;5.398;2024-02-26T21:08:15;5.30;91.30
46652;DHT22;32377;52.182;5.398;2024-02-26T21:10:42;5.30;90.80
46652;DHT22;32377;52.182;5.398;2024-02-26T21:13:08;5.30;90.30
46652;DHT22;32377;52.182;5.398;2024-02-26T21:15:34;5.30;71.80
46652;DHT22;32377;52.182;5.398;2024-02-26T21:17:59;5.40;51.30
46652;DHT22;32377;52.182;5.398;2024-02-26T21:20:25;5.40;47.90
46652;DHT22;32377;52.182;5.398;2024-02-26T21:22:53;5.40;34.90
46652;DHT22;32377;52.182;5.398;2024-02-26T21:25:19;5.40;26.30
46652;DHT22;32377;52.182;5.398;2024-02-26T21:27:44;5.40;23.70
46652;DHT22;32377;52.182;5.398;2024-02-26T21:30:13;5.40;21.90
46652;DHT22;32377;52.182;5.398;2024-02-26T21:32:40;5.40;9.50
46652;DHT22;32377;52.182;5.398;2024-02-26T21:35:07;5.40;9.70
46652;DHT22;32377;52.182;5.398;2024-02-26T21:37:32;5.50;1.00
46652;DHT22;32377;52.182;5.398;2024-02-26T21:39:58;5.40;1.00
46652;DHT22;32377;52.182;5.398;2024-02-26T21:42:24;5.40;1.00
46652;DHT22;32377;52.182;5.398;2024-02-26T21:44:50;5.40;1.00